createdAt,value
2017-10-13T00:00:13.252Z,6.17
2017-10-13T00:02:42.134Z,5.70
2017-10-13T00:05:11.003Z,4.70
2017-10-13T00:07:39.897Z,5.40
2017-10-13T00:10:08.757Z,4.70
2017-10-13T00:12:37.689Z,5.40
2017-10-13T00:15:06.555Z,4.37
2017-10-13T00:17:35.441Z,4.70
2017-10-13T00:20:04.314Z,5.00
2017-10-13T00:22:33.162Z,5.70
2017-10-13T00:25:02.337Z,5.10
2017-10-13T00:27:31.197Z,5.20
2017-10-13T00:30:00.056Z,4.70
2017-10-13T00:32:28.911Z,5.20
2017-10-13T00:34:57.781Z,4.53
2017-10-13T00:37:26.680Z,5.20
2017-10-13T00:39:55.530Z,5.20
2017-10-13T00:42:24.423Z,5.90
2017-10-13T00:44:53.302Z,5.67
2017-10-13T00:47:22.169Z,5.10
2017-10-13T00:49:51.050Z,5.30
2017-10-13T00:52:19.927Z,5.13
2017-10-13T00:54:48.789Z,5.83
2017-10-13T00:57:17.701Z,5.27
2017-10-13T00:59:46.560Z,5.10
2017-10-13T01:02:15.457Z,5.57
2017-10-13T01:04:44.359Z,4.67
2017-10-13T01:07:13.243Z,12.30
2017-10-13T01:09:42.107Z,6.20
2017-10-13T01:12:11.022Z,5.90
2017-10-13T01:14:39.906Z,6.30
2017-10-13T01:17:08.758Z,5.33
2017-10-13T01:19:37.665Z,5.77
2017-10-13T01:22:06.535Z,5.77
2017-10-13T01:24:35.420Z,5.00
2017-10-13T01:27:04.337Z,5.10
2017-10-13T01:29:33.198Z,5.40
2017-10-13T01:32:02.071Z,5.20
2017-10-13T01:34:30.966Z,5.33
2017-10-13T01:36:59.839Z,5.47
2017-10-13T01:39:28.768Z,5.93
2017-10-13T01:41:57.625Z,6.63
2017-10-13T01:44:26.503Z,6.67
2017-10-13T01:46:55.400Z,5.07
2017-10-13T01:49:24.240Z,5.60
2017-10-13T01:51:53.254Z,4.90
2017-10-13T01:54:22.137Z,4.70
2017-10-13T01:56:50.997Z,4.23
2017-10-13T01:59:19.848Z,5.77
2017-10-13T02:01:48.822Z,5.00
2017-10-13T02:04:17.688Z,4.70
2017-10-13T02:06:46.542Z,4.90
2017-10-13T02:09:15.406Z,5.40
2017-10-13T02:11:44.294Z,6.73
2017-10-13T02:14:13.354Z,5.30
2017-10-13T02:16:42.234Z,5.63
2017-10-13T02:19:11.091Z,5.50
2017-10-13T02:21:39.963Z,4.90
2017-10-13T02:24:08.853Z,5.43
2017-10-13T02:26:37.732Z,5.63
2017-10-13T02:29:06.583Z,5.00
2017-10-13T02:31:35.504Z,5.80
2017-10-13T02:34:04.372Z,6.03
2017-10-13T02:36:33.261Z,6.17
2017-10-13T02:39:02.135Z,6.23
2017-10-13T02:41:31.035Z,6.00
2017-10-13T02:43:59.918Z,4.93
2017-10-13T02:46:28.774Z,5.40
2017-10-13T02:48:57.681Z,5.10
2017-10-13T02:51:26.546Z,4.83
2017-10-13T02:53:55.401Z,5.30
2017-10-13T02:56:24.270Z,6.83
2017-10-13T02:58:53.147Z,5.60
2017-10-13T03:01:22.047Z,5.97
2017-10-13T03:03:50.935Z,5.80
2017-10-13T03:06:19.790Z,5.60
2017-10-13T03:08:48.674Z,5.23
2017-10-13T03:11:17.530Z,5.87
2017-10-13T03:13:46.523Z,5.70
2017-10-13T03:16:15.388Z,6.33
2017-10-13T03:18:44.241Z,5.47
2017-10-13T03:21:13.108Z,5.90
2017-10-13T03:23:41.951Z,6.00
2017-10-13T03:26:11.163Z,5.73
2017-10-13T03:28:40.017Z,6.00
2017-10-13T03:31:08.882Z,5.70
2017-10-13T03:33:37.760Z,5.80
2017-10-13T03:36:06.637Z,5.93
2017-10-13T03:38:35.514Z,6.13
2017-10-13T03:41:04.650Z,6.20
2017-10-13T03:43:33.542Z,7.43
2017-10-13T03:46:02.385Z,9.07
2017-10-13T03:48:31.240Z,7.70
2017-10-13T03:51:00.098Z,7.00
2017-10-13T03:53:28.975Z,8.47
2017-10-13T03:55:57.870Z,7.03
2017-10-13T03:58:26.764Z,6.37
2017-10-13T04:00:55.642Z,7.27
2017-10-13T04:03:24.533Z,7.37
2017-10-13T04:05:53.436Z,7.43
2017-10-13T04:08:22.326Z,7.53
2017-10-13T04:10:51.174Z,6.50
2017-10-13T04:13:20.121Z,7.00
2017-10-13T04:15:48.990Z,6.40
2017-10-13T04:18:17.869Z,7.73
2017-10-13T04:20:46.782Z,6.67
2017-10-13T04:23:15.634Z,6.27
2017-10-13T04:25:44.506Z,7.60
2017-10-13T04:28:13.448Z,6.90
2017-10-13T04:30:42.500Z,7.43
2017-10-13T04:33:11.386Z,7.13
2017-10-13T04:35:40.263Z,6.87
2017-10-13T04:38:09.125Z,6.93
2017-10-13T04:40:38.014Z,7.13
2017-10-13T04:43:06.926Z,6.50
2017-10-13T04:45:35.792Z,7.10
2017-10-13T04:48:04.643Z,7.57
2017-10-13T04:50:33.535Z,7.00
2017-10-13T04:53:02.422Z,6.30
2017-10-13T04:55:31.312Z,6.20
2017-10-13T04:58:00.166Z,7.13
2017-10-13T05:00:29.228Z,7.10
2017-10-13T05:02:58.074Z,6.40
2017-10-13T05:05:26.947Z,6.77
2017-10-13T05:07:55.822Z,7.33
2017-10-13T05:10:24.665Z,6.70
2017-10-13T05:12:54.086Z,7.10
2017-10-13T05:15:22.935Z,7.47
2017-10-13T05:17:51.959Z,6.40
2017-10-13T05:20:21.118Z,7.07
2017-10-13T05:22:50.051Z,7.17
2017-10-13T05:25:18.922Z,6.40
2017-10-13T05:27:47.793Z,6.70
2017-10-13T05:30:16.686Z,7.30
2017-10-13T05:32:45.557Z,8.60
2017-10-13T05:35:14.459Z,11.70
2017-10-13T05:37:43.317Z,7.53
2017-10-13T05:40:12.190Z,7.60
2017-10-13T05:42:41.063Z,7.70
2017-10-13T05:45:09.956Z,6.87
2017-10-13T05:47:38.825Z,7.27
2017-10-13T05:50:07.692Z,7.40
2017-10-13T05:52:36.722Z,7.63
2017-10-13T05:55:05.579Z,6.30
2017-10-13T05:57:34.467Z,7.67
2017-10-13T06:00:03.443Z,7.03
2017-10-13T06:02:32.380Z,6.67
2017-10-13T06:05:01.270Z,6.47
2017-10-13T06:07:30.119Z,6.77
2017-10-13T06:09:59.010Z,6.63
2017-10-13T06:12:27.859Z,7.00
2017-10-13T06:14:56.723Z,7.00
2017-10-13T06:17:25.597Z,6.93
2017-10-13T06:19:54.458Z,7.10
2017-10-13T06:22:23.382Z,7.07
2017-10-13T06:24:52.290Z,6.83
2017-10-13T06:27:21.199Z,8.33
2017-10-13T06:29:50.058Z,7.13
2017-10-13T06:32:18.940Z,8.20
2017-10-13T06:34:47.819Z,10.43
2017-10-13T06:37:16.734Z,8.20
2017-10-13T06:39:45.601Z,10.80
2017-10-13T06:42:14.494Z,8.37
2017-10-13T06:44:43.362Z,6.80
2017-10-13T06:47:12.225Z,24.80
2017-10-13T06:49:41.114Z,10.30
2017-10-13T06:52:09.963Z,6.93
2017-10-13T06:54:38.896Z,6.93
2017-10-13T06:57:07.767Z,7.10
2017-10-13T06:59:36.669Z,6.80
2017-10-13T07:02:05.539Z,7.13
2017-10-13T07:04:34.381Z,8.13
2017-10-13T07:07:03.270Z,9.00
2017-10-13T07:09:32.159Z,7.77
2017-10-13T07:12:01.041Z,15.50
2017-10-13T07:14:29.947Z,12.10
2017-10-13T07:16:58.977Z,7.60
2017-10-13T07:19:27.844Z,19.07
2017-10-13T07:21:56.719Z,15.27
2017-10-13T07:24:25.602Z,7.13
2017-10-13T07:26:54.462Z,14.33
2017-10-13T07:29:23.331Z,8.00
2017-10-13T07:31:52.201Z,6.60
2017-10-13T07:34:21.093Z,7.17
2017-10-13T07:36:49.951Z,6.80
2017-10-13T07:39:18.794Z,6.20
2017-10-13T07:41:47.658Z,5.80
2017-10-13T07:44:16.498Z,6.50
2017-10-13T07:46:45.395Z,6.90
2017-10-13T07:49:14.265Z,8.10
2017-10-13T07:51:43.153Z,7.20
2017-10-13T07:54:12.028Z,6.70
2017-10-13T07:56:40.891Z,7.67
2017-10-13T07:59:09.768Z,7.10
2017-10-13T08:01:38.737Z,6.83
2017-10-13T08:04:07.640Z,6.47
2017-10-13T08:06:36.520Z,7.17
2017-10-13T08:09:05.536Z,6.77
2017-10-13T08:11:34.393Z,6.90
2017-10-13T08:14:03.246Z,7.13
2017-10-13T08:16:32.109Z,6.40
2017-10-13T08:19:01.006Z,5.57
2017-10-13T08:21:29.870Z,6.40
2017-10-13T08:23:58.718Z,5.30
2017-10-13T08:26:27.610Z,5.30
2017-10-13T08:28:56.458Z,5.10
2017-10-13T08:31:25.380Z,5.07
2017-10-13T08:33:55.103Z,4.60
2017-10-13T08:36:23.951Z,4.33
2017-10-13T08:38:52.812Z,4.07
2017-10-13T08:41:21.687Z,3.97
2017-10-13T08:43:50.553Z,3.33
2017-10-13T08:46:19.452Z,3.30
2017-10-13T08:48:48.342Z,3.13
2017-10-13T08:51:17.192Z,3.53
2017-10-13T08:53:46.064Z,3.50
2017-10-13T08:56:14.954Z,2.97
2017-10-13T08:58:43.806Z,3.00
2017-10-13T09:01:12.701Z,2.50
2017-10-13T09:03:41.548Z,2.20
2017-10-13T09:06:10.419Z,3.63
2017-10-13T09:08:39.283Z,2.20
2017-10-13T09:11:08.158Z,2.20
2017-10-13T09:13:37.015Z,2.67
2017-10-13T09:16:05.869Z,2.80
2017-10-13T09:18:34.751Z,2.17
2017-10-13T09:21:03.618Z,2.20
2017-10-13T09:23:32.480Z,2.20
2017-10-13T09:26:01.368Z,1.80
2017-10-13T09:28:30.229Z,2.20
2017-10-13T09:30:59.073Z,1.80
2017-10-13T09:33:27.985Z,1.70
2017-10-13T09:35:56.831Z,2.10
2017-10-13T09:38:25.697Z,2.03
2017-10-13T09:40:54.581Z,1.80
2017-10-13T09:43:23.429Z,1.40
2017-10-13T09:45:52.309Z,1.90
2017-10-13T09:48:21.167Z,1.67
2017-10-13T09:50:50.056Z,1.73
2017-10-13T09:53:18.908Z,1.63
2017-10-13T09:55:47.786Z,1.70
2017-10-13T09:58:16.669Z,1.50
2017-10-13T10:00:45.530Z,1.40
2017-10-13T10:03:14.412Z,1.83
2017-10-13T10:05:43.255Z,2.00
2017-10-13T10:08:12.163Z,1.70
2017-10-13T10:10:41.055Z,1.90
2017-10-13T10:13:09.965Z,1.90
2017-10-13T10:15:38.871Z,1.80
2017-10-13T10:18:07.713Z,1.70
2017-10-13T10:20:36.600Z,1.87
2017-10-13T10:23:05.443Z,1.80
2017-10-13T10:25:34.358Z,1.50
2017-10-13T10:28:03.218Z,1.60
2017-10-13T10:30:32.308Z,1.90
2017-10-13T10:33:01.164Z,1.90
2017-10-13T10:35:30.025Z,1.83
2017-10-13T10:37:58.899Z,1.90
2017-10-13T10:40:27.743Z,1.87
2017-10-13T10:42:56.662Z,2.67
2017-10-13T10:45:25.508Z,2.40
2017-10-13T10:47:54.418Z,2.17
2017-10-13T10:50:23.269Z,2.00
2017-10-13T10:52:52.128Z,1.70
2017-10-13T10:55:21.082Z,2.23
2017-10-13T10:57:49.927Z,1.80
2017-10-13T11:00:18.803Z,1.60
2017-10-13T11:02:47.667Z,1.83
2017-10-13T11:05:16.547Z,1.57
2017-10-13T11:07:45.406Z,1.90
2017-10-13T11:10:14.278Z,1.80
2017-10-13T11:12:43.230Z,1.70
2017-10-13T11:15:12.110Z,1.70
2017-10-13T11:17:40.978Z,1.80
2017-10-13T11:20:09.856Z,2.20
2017-10-13T11:22:38.712Z,1.90
2017-10-13T11:25:07.636Z,1.50
2017-10-13T11:27:36.507Z,1.63
2017-10-13T11:30:05.374Z,1.63
2017-10-13T11:32:34.248Z,1.50
2017-10-13T11:35:03.088Z,1.90
2017-10-13T11:37:31.962Z,1.70
2017-10-13T11:40:00.822Z,2.40
2017-10-13T11:42:29.726Z,2.27
2017-10-13T11:44:58.568Z,1.63
2017-10-13T11:47:27.441Z,1.43
2017-10-13T11:49:58.131Z,2.00
2017-10-13T11:52:26.975Z,1.70
2017-10-13T11:54:55.842Z,1.67
2017-10-13T11:57:24.691Z,2.90
2017-10-13T11:59:53.596Z,1.90
2017-10-13T12:02:22.434Z,2.67
2017-10-13T12:04:51.294Z,3.10
2017-10-13T12:07:20.167Z,1.90
2017-10-13T12:09:49.036Z,2.23
2017-10-13T12:12:17.922Z,2.47
2017-10-13T12:14:46.774Z,1.67
2017-10-13T12:17:15.797Z,1.90
2017-10-13T12:19:44.696Z,1.70
2017-10-13T12:22:13.547Z,1.70
2017-10-13T12:24:42.409Z,1.53
2017-10-13T12:27:11.263Z,2.00
2017-10-13T12:29:40.128Z,1.77
2017-10-13T12:32:08.986Z,1.67
2017-10-13T12:34:37.884Z,1.40
2017-10-13T12:37:06.740Z,1.77
2017-10-13T12:39:35.587Z,1.70
2017-10-13T12:42:04.464Z,1.50
2017-10-13T12:44:33.342Z,1.23
2017-10-13T12:47:02.214Z,1.70
2017-10-13T12:49:31.066Z,2.70
2017-10-13T12:51:59.942Z,2.00
2017-10-13T12:54:28.802Z,1.67
2017-10-13T12:56:57.693Z,1.80
2017-10-13T12:59:26.544Z,2.50
2017-10-13T13:01:55.410Z,1.73
2017-10-13T13:04:24.278Z,2.47
2017-10-13T13:06:53.126Z,2.37
2017-10-13T13:09:22.003Z,2.30
2017-10-13T13:11:50.890Z,1.90
2017-10-13T13:14:19.780Z,1.93
2017-10-13T13:16:48.623Z,3.03
2017-10-13T13:19:17.483Z,2.93
2017-10-13T13:21:46.723Z,2.53
2017-10-13T13:24:15.575Z,2.53
2017-10-13T13:26:44.491Z,2.13
2017-10-13T13:29:13.362Z,2.00
2017-10-13T13:31:42.778Z,2.80
2017-10-13T13:34:11.620Z,2.57
2017-10-13T13:36:40.480Z,2.30
2017-10-13T13:39:09.335Z,1.50
2017-10-13T13:41:38.225Z,1.53
2017-10-13T13:44:07.102Z,2.00
2017-10-13T13:46:36.003Z,1.37
2017-10-13T13:49:05.099Z,2.10
2017-10-13T13:51:35.199Z,1.63
2017-10-13T13:54:04.083Z,1.63
2017-10-13T13:56:32.957Z,1.80
2017-10-13T13:59:01.886Z,2.70
2017-10-13T14:01:30.758Z,2.20
2017-10-13T14:03:59.647Z,1.63
2017-10-13T14:06:28.655Z,2.07
2017-10-13T14:08:57.785Z,2.30
2017-10-13T14:11:26.687Z,1.57
2017-10-13T14:13:55.994Z,1.60
2017-10-13T14:16:24.854Z,2.10
2017-10-13T14:18:53.734Z,1.70
2017-10-13T14:21:22.617Z,6.50
2017-10-13T14:23:51.479Z,5.27
2017-10-13T14:26:20.343Z,2.20
2017-10-13T14:28:49.298Z,2.20
2017-10-13T14:31:18.176Z,1.93
2017-10-13T14:33:47.070Z,2.30
2017-10-13T14:36:15.926Z,4.73
2017-10-13T14:38:44.834Z,3.93
2017-10-13T14:41:13.747Z,3.40
2017-10-13T14:43:42.616Z,2.40
2017-10-13T14:46:11.494Z,4.83
2017-10-13T14:48:40.339Z,4.67
2017-10-13T14:51:09.233Z,2.60
2017-10-13T14:53:38.083Z,4.00
2017-10-13T14:56:06.961Z,2.60
2017-10-13T14:58:35.827Z,2.17
2017-10-13T15:01:04.670Z,1.50
2017-10-13T15:03:33.539Z,2.17
2017-10-13T15:06:02.415Z,1.90
2017-10-13T15:08:31.282Z,2.07
2017-10-13T15:11:00.153Z,2.00
2017-10-13T15:13:29.038Z,1.97
2017-10-13T15:15:57.889Z,2.00
2017-10-13T15:18:26.739Z,2.13
2017-10-13T15:20:55.602Z,2.93
2017-10-13T15:23:24.468Z,3.23
2017-10-13T15:25:55.325Z,2.70
2017-10-13T15:28:30.368Z,2.53
2017-10-13T15:31:01.230Z,3.13
2017-10-13T15:33:35.812Z,2.70
2017-10-13T15:36:10.417Z,2.70
2017-10-13T15:38:45.131Z,2.50
2017-10-13T15:41:19.893Z,1.83
2017-10-13T15:43:54.601Z,1.90
2017-10-13T15:46:29.177Z,2.73
2017-10-13T15:49:03.830Z,2.07
2017-10-13T15:51:38.476Z,2.40
2017-10-13T15:54:07.322Z,2.97
2017-10-13T15:56:36.261Z,2.90
2017-10-13T15:59:05.140Z,3.37
2017-10-13T16:01:34.001Z,3.07
2017-10-13T16:04:02.874Z,3.23
2017-10-13T16:06:31.758Z,3.90
2017-10-13T16:09:00.629Z,3.67
2017-10-13T16:11:29.478Z,3.70
2017-10-13T16:13:58.355Z,5.27
2017-10-13T16:16:27.236Z,3.80
2017-10-13T16:18:56.173Z,3.27
2017-10-13T16:21:25.041Z,3.27
2017-10-13T16:23:53.976Z,3.78
2017-10-13T16:26:22.861Z,3.20
2017-10-13T16:28:52.242Z,3.50
2017-10-13T16:31:21.186Z,3.00
2017-10-13T16:33:50.060Z,3.50
2017-10-13T16:36:19.074Z,3.00
2017-10-13T16:38:47.929Z,3.27
2017-10-13T16:41:16.779Z,4.53
2017-10-13T16:43:45.672Z,4.20
2017-10-13T16:46:14.567Z,4.20
2017-10-13T16:48:43.471Z,2.87
2017-10-13T16:51:12.348Z,4.20
2017-10-13T16:53:41.303Z,3.73
2017-10-13T16:56:10.160Z,4.60
2017-10-13T16:58:39.115Z,4.90
2017-10-13T17:01:08.122Z,5.20
2017-10-13T17:03:36.994Z,4.77
2017-10-13T17:06:05.863Z,4.73
2017-10-13T17:08:34.779Z,3.93
2017-10-13T17:11:03.902Z,4.40
2017-10-13T17:13:32.764Z,4.53
2017-10-13T17:16:01.805Z,4.10
2017-10-13T17:18:30.682Z,3.80
2017-10-13T17:20:59.600Z,4.07
2017-10-13T17:23:28.476Z,6.27
2017-10-13T17:25:57.380Z,6.03
2017-10-13T17:28:26.239Z,5.70
2017-10-13T17:30:55.103Z,5.80
2017-10-13T17:33:23.987Z,8.37
2017-10-13T17:35:52.873Z,6.27
2017-10-13T17:38:21.823Z,5.70
2017-10-13T17:40:50.674Z,6.40
2017-10-13T17:43:19.535Z,7.10
2017-10-13T17:45:48.448Z,6.30
2017-10-13T17:48:17.330Z,7.13
2017-10-13T17:50:46.210Z,6.90
2017-10-13T17:53:15.070Z,6.30
2017-10-13T17:55:43.945Z,8.07
2017-10-13T17:58:12.832Z,7.10
2017-10-13T18:00:41.697Z,6.97
2017-10-13T18:03:10.563Z,5.00
2017-10-13T18:05:39.464Z,4.87
2017-10-13T18:08:08.316Z,5.67
2017-10-13T18:10:37.154Z,5.80
2017-10-13T18:13:06.022Z,4.87
2017-10-13T18:15:34.885Z,6.57
2017-10-13T18:18:04.043Z,5.37
2017-10-13T18:20:32.898Z,5.80
2017-10-13T18:23:01.829Z,6.57
2017-10-13T18:25:30.689Z,5.10
2017-10-13T18:27:59.564Z,6.60
2017-10-13T18:30:28.430Z,6.60
2017-10-13T18:32:57.445Z,5.50
2017-10-13T18:35:26.340Z,5.50
2017-10-13T18:37:55.219Z,10.30
2017-10-13T18:40:24.252Z,11.80
2017-10-13T18:42:53.103Z,7.27
2017-10-13T18:45:21.962Z,7.23
2017-10-13T18:47:50.829Z,5.90
2017-10-13T18:50:19.691Z,5.70
2017-10-13T18:52:48.567Z,6.30
2017-10-13T18:55:17.470Z,6.67
2017-10-13T18:57:46.367Z,6.70
2017-10-13T19:00:16.126Z,6.90
2017-10-13T19:02:45.024Z,7.07
2017-10-13T19:05:13.882Z,7.22
2017-10-13T19:07:42.836Z,7.17
2017-10-13T19:10:11.705Z,9.25
2017-10-13T19:12:40.565Z,9.57
2017-10-13T19:15:09.432Z,10.77
2017-10-13T19:17:38.310Z,8.87
2017-10-13T19:20:07.186Z,10.00
2017-10-13T19:22:36.046Z,9.23
2017-10-13T19:25:04.964Z,9.47
2017-10-13T19:27:33.826Z,10.03
2017-10-13T19:30:02.720Z,8.35
2017-10-13T19:32:31.590Z,8.07
2017-10-13T19:35:00.463Z,7.20
2017-10-13T19:37:29.337Z,6.50
2017-10-13T19:39:58.187Z,7.13
2017-10-13T19:42:27.084Z,13.00
2017-10-13T19:44:55.952Z,13.50
2017-10-13T19:47:24.852Z,12.63
2017-10-13T19:49:53.738Z,7.23
2017-10-13T19:52:22.605Z,11.27
2017-10-13T19:54:51.484Z,8.77
2017-10-13T19:57:20.417Z,6.20
2017-10-13T19:59:49.308Z,6.83
2017-10-13T20:02:18.202Z,6.33
2017-10-13T20:04:47.109Z,6.70
2017-10-13T20:07:16.118Z,6.97
2017-10-13T20:09:45.783Z,7.73
2017-10-13T20:12:14.762Z,6.00
2017-10-13T20:14:43.636Z,5.20
2017-10-13T20:17:12.626Z,5.93
2017-10-13T20:19:41.624Z,8.67
2017-10-13T20:22:10.477Z,6.73
2017-10-13T20:24:39.355Z,6.57
2017-10-13T20:27:08.211Z,6.40
2017-10-13T20:29:37.110Z,6.73
2017-10-13T20:32:06.038Z,6.63
2017-10-13T20:34:34.928Z,7.17
2017-10-13T20:37:03.813Z,7.00
2017-10-13T20:39:32.671Z,6.93
2017-10-13T20:42:01.558Z,6.57
2017-10-13T20:44:30.413Z,8.00
2017-10-13T20:46:59.290Z,7.10
2017-10-13T20:49:28.142Z,6.07
2017-10-13T20:51:57.043Z,6.33
2017-10-13T20:54:25.926Z,5.63
2017-10-13T20:56:54.791Z,6.30
2017-10-13T20:59:23.676Z,7.20
2017-10-13T21:01:52.527Z,5.63
2017-10-13T21:04:21.412Z,6.13
2017-10-13T21:06:50.259Z,6.37
2017-10-13T21:09:19.136Z,6.20
2017-10-13T21:11:48.350Z,6.07
2017-10-13T21:14:17.234Z,5.83
2017-10-13T21:16:46.088Z,5.90
2017-10-13T21:19:14.944Z,6.23
2017-10-13T21:21:43.823Z,6.03
2017-10-13T21:24:12.671Z,5.50
2017-10-13T21:26:41.540Z,6.30
2017-10-13T21:29:10.399Z,6.27
2017-10-13T21:31:39.286Z,6.43
2017-10-13T21:34:08.139Z,6.50
2017-10-13T21:36:36.984Z,5.63
2017-10-13T21:39:05.855Z,7.07
2017-10-13T21:41:34.733Z,7.33
2017-10-13T21:44:03.627Z,5.50
2017-10-13T21:46:32.495Z,9.37
2017-10-13T21:49:01.345Z,7.17
2017-10-13T21:51:30.224Z,6.00
2017-10-13T21:53:59.112Z,6.03
2017-10-13T21:56:27.996Z,5.43
2017-10-13T21:58:56.839Z,5.17
2017-10-13T22:01:25.699Z,5.70
2017-10-13T22:03:54.571Z,5.30
2017-10-13T22:06:23.430Z,6.53
2017-10-13T22:08:52.322Z,5.87
2017-10-13T22:11:21.199Z,6.27
2017-10-13T22:13:50.062Z,5.87
2017-10-13T22:16:18.932Z,4.97
2017-10-13T22:18:47.793Z,6.70
2017-10-13T22:21:16.667Z,7.03
2017-10-13T22:23:45.535Z,5.67
2017-10-13T22:26:15.198Z,5.57
2017-10-13T22:28:44.102Z,5.80
2017-10-13T22:31:12.955Z,4.80
2017-10-13T22:33:41.827Z,4.73
2017-10-13T22:36:10.686Z,5.20
2017-10-13T22:38:39.572Z,5.37
2017-10-13T22:41:08.432Z,5.40
2017-10-13T22:43:37.317Z,5.30
2017-10-13T22:46:06.197Z,5.23
2017-10-13T22:48:35.059Z,5.43
2017-10-13T22:51:03.947Z,5.03
2017-10-13T22:53:32.806Z,5.17
2017-10-13T22:56:01.669Z,5.03
2017-10-13T22:58:30.515Z,5.57
2017-10-13T23:00:59.430Z,5.43
2017-10-13T23:03:28.282Z,4.80
2017-10-13T23:05:57.130Z,5.10
2017-10-13T23:08:26.009Z,4.50
2017-10-13T23:10:54.859Z,4.97
2017-10-13T23:13:23.734Z,4.90
2017-10-13T23:15:52.603Z,4.57
2017-10-13T23:18:21.535Z,3.90
2017-10-13T23:20:50.403Z,5.00
2017-10-13T23:23:19.274Z,4.73
2017-10-13T23:25:48.156Z,4.87
2017-10-13T23:28:17.009Z,5.17
2017-10-13T23:30:46.030Z,4.90
2017-10-13T23:33:14.880Z,4.53
2017-10-13T23:35:43.742Z,4.97
2017-10-13T23:38:12.607Z,5.03
2017-10-13T23:40:41.462Z,5.27
2017-10-13T23:43:10.337Z,4.87
2017-10-13T23:45:39.207Z,5.27
2017-10-13T23:48:08.127Z,4.87
2017-10-13T23:50:36.976Z,5.00
2017-10-13T23:53:05.837Z,5.27
2017-10-13T23:55:34.694Z,5.20
2017-10-13T23:58:03.552Z,4.37
